createdAt,value
2023-04-26T00:04:29.083Z,4.04
2023-04-26T00:09:31.668Z,4.54
2023-04-26T00:14:34.046Z,4.04
2023-04-26T00:19:35.569Z,4.64
2023-04-26T00:24:37.151Z,4.28
2023-04-26T00:29:38.797Z,3.72
2023-04-26T00:34:40.437Z,3.74
2023-04-26T00:39:41.976Z,3.34
2023-04-26T00:44:43.442Z,3.45
2023-04-26T00:49:45.130Z,3.44
2023-04-26T00:54:48.730Z,3.39
2023-04-26T00:59:50.185Z,3.48
2023-04-26T01:04:52.120Z,3.64
2023-04-26T01:09:54.613Z,3.54
2023-04-26T01:14:57.403Z,3.75
2023-04-26T01:19:58.913Z,3.65
2023-04-26T01:25:04.412Z,3.72
2023-04-26T01:30:09.730Z,3.96
2023-04-26T01:35:11.438Z,4.06
2023-04-26T01:40:13.856Z,3.90
2023-04-26T01:45:15.596Z,3.65
2023-04-26T01:50:35.773Z,3.36
2023-04-26T01:55:37.252Z,3.81
2023-04-26T02:00:38.717Z,3.69
2023-04-26T02:05:40.608Z,3.69
2023-04-26T02:10:42.110Z,3.61
2023-04-26T02:15:46.846Z,3.69
2023-04-26T02:20:48.366Z,4.08
2023-04-26T02:25:49.872Z,4.51
2023-04-26T02:30:51.859Z,4.65
2023-04-26T02:35:53.589Z,4.37
2023-04-26T02:40:59.605Z,4.13
2023-04-26T02:46:01.386Z,4.31
2023-04-26T02:51:03.697Z,3.63
2023-04-26T02:56:06.150Z,3.34
2023-04-26T03:01:08.834Z,3.69
2023-04-26T03:06:10.330Z,3.23
2023-04-26T03:11:12.049Z,3.87
2023-04-26T03:16:13.855Z,3.50
2023-04-26T03:21:15.519Z,3.12
2023-04-26T03:26:17.264Z,3.60
2023-04-26T03:31:20.188Z,2.80
2023-04-26T03:36:22.289Z,2.97
2023-04-26T03:41:24.673Z,2.88
2023-04-26T03:46:28.273Z,2.81
2023-04-26T03:51:29.878Z,3.77
2023-04-26T03:56:31.472Z,3.85
2023-04-26T04:01:34.038Z,3.33
2023-04-26T04:06:35.652Z,3.12
2023-04-26T04:11:37.238Z,3.10
2023-04-26T04:16:38.764Z,3.15
2023-04-26T04:21:40.753Z,2.43
2023-04-26T04:26:42.981Z,2.19
2023-04-26T04:31:44.736Z,2.69
2023-04-26T04:36:46.327Z,2.73
2023-04-26T04:41:48.715Z,2.46
2023-04-26T04:46:52.554Z,2.51
2023-04-26T04:51:54.942Z,2.78
2023-04-26T04:56:57.933Z,3.30
2023-04-26T05:01:59.515Z,2.95
2023-04-26T05:07:02.052Z,3.95
2023-04-26T05:12:04.299Z,4.31
2023-04-26T05:17:06.495Z,4.10
2023-04-26T05:22:08.410Z,4.26
2023-04-26T05:27:10.652Z,4.60
2023-04-26T05:32:27.488Z,4.90
2023-04-26T05:37:51.826Z,5.40
2023-04-26T05:42:57.335Z,5.27
2023-04-26T05:48:01.037Z,5.21
2023-04-26T05:53:02.605Z,5.77
2023-04-26T05:58:05.104Z,5.67
2023-04-26T06:03:06.775Z,5.91
2023-04-26T06:08:08.985Z,6.40
2023-04-26T06:13:10.585Z,6.55
2023-04-26T06:18:12.865Z,7.37
2023-04-26T06:23:14.360Z,7.50
2023-04-26T06:28:15.810Z,7.27
2023-04-26T06:33:17.738Z,7.58
2023-04-26T06:38:19.424Z,8.21
2023-04-26T06:43:21.376Z,8.44
2023-04-26T06:48:32.003Z,8.44
2023-04-26T06:53:33.719Z,9.25
2023-04-26T06:58:35.212Z,9.77
2023-04-26T07:03:36.851Z,9.48
2023-04-26T07:08:38.592Z,10.71
2023-04-26T07:13:40.077Z,10.41
2023-04-26T07:18:41.669Z,9.73
2023-04-26T07:23:43.150Z,9.95
2023-04-26T07:28:44.659Z,9.86
2023-04-26T07:33:46.158Z,9.69
2023-04-26T07:38:47.668Z,10.01
2023-04-26T07:43:49.145Z,10.78
2023-04-26T07:48:50.736Z,10.75
2023-04-26T07:53:52.395Z,11.53
2023-04-26T07:58:54.118Z,11.32
2023-04-26T08:03:55.982Z,10.26
2023-04-26T08:08:57.806Z,11.70
2023-04-26T08:13:59.328Z,11.67
2023-04-26T08:19:02.922Z,12.03
2023-04-26T08:24:04.738Z,11.66
2023-04-26T08:29:06.576Z,11.48
2023-04-26T08:34:14.032Z,10.27
2023-04-26T08:39:17.887Z,10.07
2023-04-26T08:44:26.012Z,10.44
2023-04-26T08:49:35.455Z,10.57
2023-04-26T08:54:38.245Z,10.07
2023-04-26T08:59:40.081Z,10.55
2023-04-26T09:04:41.879Z,10.57
2023-04-26T09:09:47.689Z,11.56
2023-04-26T09:14:49.558Z,11.89
2023-04-26T09:19:51.042Z,11.66
2023-04-26T09:24:52.500Z,11.29
2023-04-26T09:29:59.781Z,11.87
2023-04-26T09:35:01.282Z,13.10
2023-04-26T09:40:02.867Z,13.64
2023-04-26T09:45:07.539Z,12.49
2023-04-26T09:50:09.188Z,11.03
2023-04-26T09:55:14.366Z,12.22
2023-04-26T10:00:21.126Z,13.68
2023-04-26T10:05:23.170Z,13.05
2023-04-26T10:10:24.695Z,11.85
2023-04-26T10:15:26.415Z,13.10
2023-04-26T10:20:29.464Z,13.00
2023-04-26T10:25:38.823Z,11.64
2023-04-26T10:30:57.661Z,12.73
2023-04-26T10:36:01.545Z,12.81
2023-04-26T10:41:32.160Z,12.45
2023-04-26T10:46:38.292Z,12.45
2023-04-26T10:51:39.867Z,12.77
2023-04-26T10:56:42.397Z,12.59
2023-04-26T11:01:44.013Z,13.41
2023-04-26T11:06:49.230Z,12.44
2023-04-26T11:11:53.917Z,12.57
2023-04-26T11:16:55.622Z,12.44
2023-04-26T11:21:57.235Z,12.10
2023-04-26T11:26:59.332Z,11.78
2023-04-26T11:32:00.936Z,12.20
2023-04-26T11:37:03.811Z,11.71
2023-04-26T11:42:10.483Z,11.54
2023-04-26T11:47:12.105Z,11.14
2023-04-26T11:52:14.028Z,10.41
2023-04-26T11:57:18.056Z,10.70
2023-04-26T12:02:24.156Z,11.33
2023-04-26T12:07:26.201Z,10.66
2023-04-26T12:12:27.907Z,11.31
2023-04-26T12:17:29.442Z,11.18
2023-04-26T12:22:31.026Z,11.43
2023-04-26T12:27:32.469Z,12.33
2023-04-26T12:32:33.968Z,12.71
2023-04-26T12:37:36.049Z,12.77
2023-04-26T12:42:37.616Z,12.96
2023-04-26T12:47:39.104Z,12.87
2023-04-26T12:52:41.736Z,13.65
2023-04-26T12:57:44.903Z,13.28
2023-04-26T13:02:46.695Z,13.67
2023-04-26T13:07:48.338Z,13.29
2023-04-26T13:12:49.835Z,12.68
2023-04-26T13:17:51.375Z,13.90
2023-04-26T13:22:53.093Z,12.99
2023-04-26T13:27:55.436Z,12.27
2023-04-26T13:32:59.937Z,12.23
2023-04-26T13:38:01.884Z,12.96
2023-04-26T13:43:03.396Z,12.52
2023-04-26T13:48:04.956Z,12.96
2023-04-26T13:53:06.541Z,12.35
2023-04-26T13:58:08.252Z,12.72
2023-04-26T14:03:09.824Z,12.96
2023-04-26T14:08:12.747Z,13.20
2023-04-26T14:13:15.906Z,12.90
2023-04-26T14:18:17.696Z,12.89
2023-04-26T14:23:19.345Z,13.04
2023-04-26T14:28:20.907Z,12.69
2023-04-26T14:33:24.957Z,12.28
2023-04-26T14:38:26.704Z,12.65
2023-04-26T14:43:28.257Z,12.90
2023-04-26T14:48:29.792Z,12.50
2023-04-26T14:53:31.536Z,12.38
2023-04-26T14:58:33.168Z,11.93
2023-04-26T15:03:34.962Z,12.95
2023-04-26T15:08:37.182Z,12.76
2023-04-26T15:13:38.711Z,12.63
2023-04-26T15:18:40.174Z,13.05
2023-04-26T15:23:41.618Z,13.29
2023-04-26T15:28:43.062Z,12.98
2023-04-26T15:33:44.523Z,12.63
2023-04-26T15:38:48.355Z,11.84
2023-04-26T15:43:55.909Z,12.85
2023-04-26T15:48:57.375Z,12.13
2023-04-26T15:53:58.827Z,12.40
2023-04-26T15:59:00.258Z,13.06
2023-04-26T16:04:01.841Z,12.89
2023-04-26T16:09:17.224Z,12.18
2023-04-26T16:14:26.250Z,12.08
2023-04-26T16:19:27.749Z,12.33
2023-04-26T16:24:29.209Z,12.08
2023-04-26T16:29:30.646Z,11.69
2023-04-26T16:34:32.140Z,12.02
2023-04-26T16:39:34.479Z,10.55
2023-04-26T16:44:36.015Z,10.41
2023-04-26T16:49:37.513Z,10.38
2023-04-26T16:54:38.972Z,10.15
2023-04-26T16:59:40.426Z,10.35
2023-04-26T17:04:42.141Z,10.37
2023-04-26T17:09:43.853Z,10.22
2023-04-26T17:14:45.437Z,10.01
2023-04-26T17:19:46.888Z,10.18
2023-04-26T17:24:48.350Z,10.57
2023-04-26T17:29:49.805Z,10.10
2023-04-26T17:34:51.313Z,10.07
2023-04-26T17:39:52.907Z,10.09
2023-04-26T17:44:55.042Z,10.11
2023-04-26T17:49:56.617Z,10.42
2023-04-26T17:54:58.146Z,10.21
2023-04-26T17:59:59.597Z,10.13
2023-04-26T18:05:01.186Z,9.94
2023-04-26T18:10:04.110Z,10.13
2023-04-26T18:15:06.519Z,10.02
2023-04-26T18:20:08.472Z,9.83
2023-04-26T18:25:09.997Z,9.83
2023-04-26T18:30:12.785Z,9.73
2023-04-26T18:35:14.248Z,9.50
2023-04-26T18:40:15.725Z,9.66
2023-04-26T18:45:17.221Z,9.66
2023-04-26T18:50:18.869Z,9.89
2023-04-26T18:55:20.362Z,9.92
2023-04-26T19:00:21.884Z,9.46
2023-04-26T19:05:23.342Z,9.75
2023-04-26T19:10:25.626Z,9.84
2023-04-26T19:15:27.196Z,9.06
2023-04-26T19:20:28.671Z,9.40
2023-04-26T19:25:30.489Z,9.11
2023-04-26T19:30:32.136Z,9.27
2023-04-26T19:35:33.613Z,9.24
2023-04-26T19:40:35.151Z,9.17
2023-04-26T19:45:37.936Z,9.39
2023-04-26T19:50:44.237Z,9.56
2023-04-26T19:55:45.909Z,9.64
2023-04-26T20:00:47.545Z,9.45
2023-04-26T20:05:49.440Z,9.26
2023-04-26T20:10:51.021Z,9.26
2023-04-26T20:15:52.695Z,10.23
2023-04-26T20:20:54.194Z,10.32
2023-04-26T20:25:55.773Z,9.88
2023-04-26T20:30:57.274Z,8.70
2023-04-26T20:35:59.200Z,8.39
2023-04-26T20:41:00.636Z,8.69
2023-04-26T20:46:02.142Z,8.77
2023-04-26T20:51:03.640Z,8.31
2023-04-26T20:56:05.261Z,8.32
2023-04-26T21:01:07.413Z,8.08
2023-04-26T21:06:09.126Z,8.00
2023-04-26T21:11:10.745Z,7.19
2023-04-26T21:16:12.352Z,7.29
2023-04-26T21:21:13.844Z,6.98
2023-04-26T21:26:15.513Z,7.21
2023-04-26T21:31:17.119Z,7.32
2023-04-26T21:36:18.691Z,6.94
2023-04-26T21:41:20.167Z,6.84
2023-04-26T21:46:21.683Z,6.77
2023-04-26T21:51:23.243Z,6.71
2023-04-26T21:56:24.941Z,6.46
2023-04-26T22:01:26.794Z,6.02
2023-04-26T22:06:28.988Z,6.36
2023-04-26T22:11:30.464Z,6.58
2023-04-26T22:16:32.095Z,6.64
2023-04-26T22:21:33.618Z,6.56
2023-04-26T22:26:35.136Z,6.51
2023-04-26T22:31:36.654Z,6.37
2023-04-26T22:36:39.136Z,6.33
2023-04-26T22:41:40.627Z,6.12
2023-04-26T22:46:42.106Z,6.06
2023-04-26T22:51:50.615Z,6.09
2023-04-26T22:56:59.178Z,6.18
2023-04-26T23:02:01.761Z,6.29
2023-04-26T23:07:03.265Z,5.89
2023-04-26T23:12:05.518Z,6.07
2023-04-26T23:17:07.088Z,5.95
2023-04-26T23:22:08.741Z,5.93
2023-04-26T23:27:10.206Z,5.76
2023-04-26T23:32:11.679Z,4.91
2023-04-26T23:37:13.130Z,4.98
2023-04-26T23:42:14.621Z,4.81
2023-04-26T23:47:16.177Z,4.89
2023-04-26T23:52:17.650Z,4.21
2023-04-26T23:57:19.117Z,4.31
